Flight Track Log - Related Links

Times and Time Zones

All times are in EDT time to prevent confusion due to time zone crossing. See the N779NC flight status page for this flight to view local times or setup timezone preferences in your user account.

Time Position Orientation Groundspeed Altitude Reporting Facility
EDT Latitude Longitude Course Direction KTS MPH feet Rate Location/Type
Tue 07:46:24 AM 42.1478 -83.4286 275° West 221 254 3,600  Level Cleveland Center
Tue 07:47:12 AM 42.1194 -83.4778 232° Southwest 222 255 5,100 2,000 Climbing Cleveland Center
Tue 07:48:00 AM 42.3315 -83.8661 292° West  Level FlightAware Approximate
Tue 07:48:12 AM 42.1594 -83.5442 309° West 242 278 7,200  Level Cleveland Center
Tue 07:49:00 AM 42.3696 -83.9930 292° West  Level FlightAware Approximate
Tue 07:49:12 AM 42.1717 -83.6286 281° West 268 308 8,800  Level Cleveland Center
Tue 07:50:00 AM 42.4077 -84.1199 292° West  Level FlightAware Approximate
Tue 07:50:12 AM 42.1942 -83.7222 288° West 273 314 10,400  Level Cleveland Center
Tue 07:51:00 AM 42.4205 -84.2437 275° West  Level FlightAware Approximate
Tue 07:51:12 AM 42.2247 -83.8275 291° West 289 333 11,400  Level Cleveland Center
Tue 07:52:12 AM 42.2611 -83.9417 293° West 311 358 12,800 1,400 Climbing Cleveland Center
Tue 07:53:12 AM 42.3033 -84.0647 295° West 340 391 14,200 1,500 Climbing Cleveland Center
Tue 07:54:12 AM 42.3472 -84.1936 295° West 358 412 15,800 1,550 Climbing Cleveland Center
Tue 07:55:12 AM 42.3975 -84.3172 299° West 370 426 17,300 1,400 Climbing Cleveland Center
Tue 07:56:12 AM 42.4283 -84.4569 287° West 375 432 18,600 1,400 Climbing Cleveland Center
Tue 07:56:42 AM 42.4392 -84.5250 282° West 394 453 19,400 1,239 Climbing Chicago Center
Tue 07:57:44 AM 42.4517 -84.6733 277° West 400 460 20,500 1,065 Climbing Chicago Center
Tue 07:58:46 AM 42.4431 -84.8294 266° West 413 475 21,600 1,016 Climbing Chicago Center
Tue 07:59:48 AM 42.4442 -84.9869 271° West 420 483 22,600 1,016 Climbing Chicago Center
Tue 08:00:50 AM 42.4444 -85.1486 270° West 427 491 23,700 683 Climbing Chicago Center
Tue 08:01:51 AM 42.4550 -85.2969 276° West 406 467 24,000 146 Climbing Chicago Center
Tue 08:02:53 AM 42.4692 -85.4586 277° West 366 421 24,000 -48 Level Chicago Center
Tue 08:03:55 AM 42.4756 -85.5853 274° West 342 394 23,900 -823 Descending Chicago Center
Tue 08:04:57 AM 42.4719 -85.7122 268° West 339 390 22,300 -1,403 Descending Chicago Center
Tue 08:05:59 AM 42.4678 -85.8419 268° West 344 396 21,000 -1,113 Descending Chicago Center
Tue 08:07:01 AM 42.4656 -85.9642 269° West 329 379 20,000 -484 Descending Chicago Center
Tue 08:08:03 AM 42.4642 -86.0842 269° West 321 369 20,000  Level Chicago Center
Tue 08:09:04 AM 42.4744 -86.2011 277° West 315 362 20,000 -488 Level Chicago Center
Tue 08:10:06 AM 42.4978 -86.3144 286° West 312 359 19,000 -1,645 Descending Chicago Center
Tue 08:11:08 AM 42.5194 -86.4489 282° West 305 351 16,600 -1,935 Descending Chicago Center
Tue 08:12:10 AM 42.5336 -86.5592 280° West 297 342 15,000 -1,258 Descending Chicago Center
Tue 08:13:12 AM 42.5472 -86.6675 280° West 292 336 14,000 -629 Descending Chicago Center
Tue 08:14:14 AM 42.5469 -86.7789 270° West 296 341 13,700 -1,016 Descending Chicago Center
Tue 08:15:16 AM 42.5314 -86.8867 259° West 293 337 11,900 -1,403 Descending Chicago Center
Tue 08:16:18 AM 42.5094 -86.9894 254° West 286 329 10,800 -1,355 Descending Chicago Center
Tue 08:17:20 AM 42.4714 -87.1025 246° West 275 316 9,100 -823 Descending Chicago Center
Tue 08:18:22 AM 42.4367 -87.1994 244° Southwest 286 329 9,100 -242 Level Chicago Center
Tue 08:19:24 AM 42.4069 -87.2967 248° West 281 323 8,600 -829 Descending Chicago Center
Tue 08:20:25 AM 42.3772 -87.3992 249° West 267 307 7,400 -1,220 Descending Chicago Center
Tue 08:21:27 AM 42.3256 -87.4586 220° Southwest 266 306 6,100 -1,355 Descending Chicago Center
Tue 08:22:29 AM 42.2500 -87.4744 189° South 269 310 4,600 -968 Descending Chicago Center
Tue 08:23:31 AM 42.1828 -87.4464 163° South 268 308 4,100 -242 Descending Chicago Center
Tue 08:24:33 AM 42.1281 -87.4075 152° Southeast 229 264 4,100  Level Chicago Center
Tue 08:25:35 AM 42.0669 -87.4061 179° South 223 257 4,100 -48 Level Chicago Center
Tue 08:26:37 AM 42.0086 -87.4439 206° Southwest 223 257 4,000  Descending Chicago Center
Tue 08:27:39 AM 42.0011 -87.5228 263° West 218 251 4,100 48 Climbing Chicago Center
Tue 08:28:41 AM 42.0025 -87.5956 271° West 202 232 4,100 -48 Level Chicago Center
Tue 08:29:43 AM 42.0014 -87.6572 269° West 175 201 4,000 -435 Descending Chicago Center
Tue 08:30:45 AM 42.0022 -87.7239 271° West 176 203 3,200 -774 Descending Chicago Center

Login

Don't have an account? Register now (free) for customized features, flight alerts, and more!